sensor_id;sensor_type;location;lat;lon;timestamp;temperature;humidity
14798;DHT22;7490;63.708;20.368;2022-12-01T00:00:13;6.20;91.90
14798;DHT22;7490;63.708;20.368;2022-12-01T00:02:38;6.10;91.90
14798;DHT22;7490;63.708;20.368;2022-12-01T00:05:04;6.10;91.90
14798;DHT22;7490;63.708;20.368;2022-12-01T00:07:30;6.10;91.90
14798;DHT22;7490;63.708;20.368;2022-12-01T00:09:56;6.10;92.00
14798;DHT22;7490;63.708;20.368;2022-12-01T00:12:40;6.10;92.00
14798;DHT22;7490;63.708;20.368;2022-12-01T00:15:09;6.10;92.00
14798;DHT22;7490;63.708;20.368;2022-12-01T00:17:35;6.10;92.00
14798;DHT22;7490;63.708;20.368;2022-12-01T00:20:01;6.00;91.90
14798;DHT22;7490;63.708;20.368;2022-12-01T00:22:27;6.00;92.00
14798;DHT22;7490;63.708;20.368;2022-12-01T00:24:52;6.00;92.00
14798;DHT22;7490;63.708;20.368;2022-12-01T00:27:18;6.00;92.00
14798;DHT22;7490;63.708;20.368;2022-12-01T00:29:45;6.00;92.00
14798;DHT22;7490;63.708;20.368;2022-12-01T00:32:10;6.10;92.00
14798;DHT22;7490;63.708;20.368;2022-12-01T00:34:36;6.10;92.00
14798;DHT22;7490;63.708;20.368;2022-12-01T00:37:03;6.10;92.00
14798;DHT22;7490;63.708;20.368;2022-12-01T00:39:29;6.10;92.00
14798;DHT22;7490;63.708;20.368;2022-12-01T00:41:54;6.00;91.90
14798;DHT22;7490;63.708;20.368;2022-12-01T00:44:20;6.00;92.00
14798;DHT22;7490;63.708;20.368;2022-12-01T00:46:46;6.00;92.00
14798;DHT22;7490;63.708;20.368;2022-12-01T00:49:12;6.00;92.10
14798;DHT22;7490;63.708;20.368;2022-12-01T00:51:38;6.00;92.10
14798;DHT22;7490;63.708;20.368;2022-12-01T00:54:03;6.10;92.10
14798;DHT22;7490;63.708;20.368;2022-12-01T00:56:29;6.10;92.10
14798;DHT22;7490;63.708;20.368;2022-12-01T00:58:55;6.10;92.10
14798;DHT22;7490;63.708;20.368;2022-12-01T01:01:21;6.10;92.10
14798;DHT22;7490;63.708;20.368;2022-12-01T01:03:47;6.10;92.00
14798;DHT22;7490;63.708;20.368;2022-12-01T01:06:13;6.10;92.00
14798;DHT22;7490;63.708;20.368;2022-12-01T01:08:39;6.10;92.00
14798;DHT22;7490;63.708;20.368;2022-12-01T01:11:05;6.20;92.00
14798;DHT22;7490;63.708;20.368;2022-12-01T01:13:32;6.20;92.00
14798;DHT22;7490;63.708;20.368;2022-12-01T01:16:18;6.20;92.00
14798;DHT22;7490;63.708;20.368;2022-12-01T01:18:47;6.20;92.00
14798;DHT22;7490;63.708;20.368;2022-12-01T01:21:15;6.10;92.00
14798;DHT22;7490;63.708;20.368;2022-12-01T01:23:41;6.10;92.00
14798;DHT22;7490;63.708;20.368;2022-12-01T01:26:11;6.10;92.10
14798;DHT22;7490;63.708;20.368;2022-12-01T01:28:37;6.20;92.10
14798;DHT22;7490;63.708;20.368;2022-12-01T01:31:11;6.20;92.10
14798;DHT22;7490;63.708;20.368;2022-12-01T01:33:37;6.20;92.00
14798;DHT22;7490;63.708;20.368;2022-12-01T01:36:03;6.20;92.00
14798;DHT22;7490;63.708;20.368;2022-12-01T01:38:30;6.20;92.00
14798;DHT22;7490;63.708;20.368;2022-12-01T01:40:56;6.30;92.10
14798;DHT22;7490;63.708;20.368;2022-12-01T01:46:09;6.30;92.10
14798;DHT22;7490;63.708;20.368;2022-12-01T01:48:35;6.30;92.00
14798;DHT22;7490;63.708;20.368;2022-12-01T01:51:02;6.30;92.00
14798;DHT22;7490;63.708;20.368;2022-12-01T01:53:29;6.50;92.40
14798;DHT22;7490;63.708;20.368;2022-12-01T01:55:56;6.30;92.00
14798;DHT22;7490;63.708;20.368;2022-12-01T01:58:22;6.30;92.00
14798;DHT22;7490;63.708;20.368;2022-12-01T02:00:48;6.30;92.00
14798;DHT22;7490;63.708;20.368;2022-12-01T02:03:15;6.30;91.90
14798;DHT22;7490;63.708;20.368;2022-12-01T02:05:41;6.30;91.90
14798;DHT22;7490;63.708;20.368;2022-12-01T02:08:09;6.30;91.90
14798;DHT22;7490;63.708;20.368;2022-12-01T02:16:25;6.30;92.00
14798;DHT22;7490;63.708;20.368;2022-12-01T02:24:49;6.30;92.00
14798;DHT22;7490;63.708;20.368;2022-12-01T02:33:17;6.30;92.00
14798;DHT22;7490;63.708;20.368;2022-12-01T02:41:11;6.30;92.00
14798;DHT22;7490;63.708;20.368;2022-12-01T02:43:58;6.30;92.00
14798;DHT22;7490;63.708;20.368;2022-12-01T02:46:37;6.30;92.00
14798;DHT22;7490;63.708;20.368;2022-12-01T02:49:08;6.30;92.00
14798;DHT22;7490;63.708;20.368;2022-12-01T02:51:37;6.30;92.00
14798;DHT22;7490;63.708;20.368;2022-12-01T02:54:04;6.30;92.00
14798;DHT22;7490;63.708;20.368;2022-12-01T02:56:30;6.30;92.00
14798;DHT22;7490;63.708;20.368;2022-12-01T02:58:56;6.30;91.90
14798;DHT22;7490;63.708;20.368;2022-12-01T03:11:52;6.30;91.90
14798;DHT22;7490;63.708;20.368;2022-12-01T03:16:56;6.30;91.90
14798;DHT22;7490;63.708;20.368;2022-12-01T03:19:47;6.30;91.90
14798;DHT22;7490;63.708;20.368;2022-12-01T03:24:39;6.30;91.90
14798;DHT22;7490;63.708;20.368;2022-12-01T03:27:07;6.30;91.90
14798;DHT22;7490;63.708;20.368;2022-12-01T03:29:40;6.30;91.90
14798;DHT22;7490;63.708;20.368;2022-12-01T03:32:12;6.30;92.00
14798;DHT22;7490;63.708;20.368;2022-12-01T03:37:34;6.30;91.90
14798;DHT22;7490;63.708;20.368;2022-12-01T03:40:04;6.20;91.90
14798;DHT22;7490;63.708;20.368;2022-12-01T03:42:34;6.20;91.90
14798;DHT22;7490;63.708;20.368;2022-12-01T03:45:06;6.20;91.90
14798;DHT22;7490;63.708;20.368;2022-12-01T03:47:34;6.20;91.90
14798;DHT22;7490;63.708;20.368;2022-12-01T03:50:04;6.20;91.90
14798;DHT22;7490;63.708;20.368;2022-12-01T03:55:28;6.20;91.90
14798;DHT22;7490;63.708;20.368;2022-12-01T04:00:28;6.20;91.90
14798;DHT22;7490;63.708;20.368;2022-12-01T04:02:57;6.20;91.90
14798;DHT22;7490;63.708;20.368;2022-12-01T04:05:23;6.20;91.90
14798;DHT22;7490;63.708;20.368;2022-12-01T04:07:50;6.20;91.90
14798;DHT22;7490;63.708;20.368;2022-12-01T04:10:15;6.20;91.90
14798;DHT22;7490;63.708;20.368;2022-12-01T04:12:41;6.20;91.90
14798;DHT22;7490;63.708;20.368;2022-12-01T04:15:09;6.20;91.90
14798;DHT22;7490;63.708;20.368;2022-12-01T04:17:39;6.10;91.90
14798;DHT22;7490;63.708;20.368;2022-12-01T04:20:08;6.20;91.90
14798;DHT22;7490;63.708;20.368;2022-12-01T04:22:35;6.20;91.90
14798;DHT22;7490;63.708;20.368;2022-12-01T04:25:02;6.20;92.00
14798;DHT22;7490;63.708;20.368;2022-12-01T04:27:28;6.20;92.00
14798;DHT22;7490;63.708;20.368;2022-12-01T04:29:54;6.20;92.00
14798;DHT22;7490;63.708;20.368;2022-12-01T04:32:20;6.20;92.00
14798;DHT22;7490;63.708;20.368;2022-12-01T04:34:45;6.20;92.00
14798;DHT22;7490;63.708;20.368;2022-12-01T04:37:11;6.20;92.00
14798;DHT22;7490;63.708;20.368;2022-12-01T04:39:37;6.20;92.00
14798;DHT22;7490;63.708;20.368;2022-12-01T04:42:04;6.20;92.00
14798;DHT22;7490;63.708;20.368;2022-12-01T04:44:30;6.20;92.00
14798;DHT22;7490;63.708;20.368;2022-12-01T04:46:55;6.20;92.00
14798;DHT22;7490;63.708;20.368;2022-12-01T04:49:21;6.20;92.00
14798;DHT22;7490;63.708;20.368;2022-12-01T04:51:47;6.20;92.00
14798;DHT22;7490;63.708;20.368;2022-12-01T04:54:14;6.20;92.00
14798;DHT22;7490;63.708;20.368;2022-12-01T04:56:39;6.20;92.00
14798;DHT22;7490;63.708;20.368;2022-12-01T04:59:05;6.20;91.90
14798;DHT22;7490;63.708;20.368;2022-12-01T05:01:31;6.20;92.00
14798;DHT22;7490;63.708;20.368;2022-12-01T05:03:57;6.20;92.00
14798;DHT22;7490;63.708;20.368;2022-12-01T05:06:24;6.20;92.00
14798;DHT22;7490;63.708;20.368;2022-12-01T05:08:53;6.20;92.00
14798;DHT22;7490;63.708;20.368;2022-12-01T05:11:19;6.10;92.00
14798;DHT22;7490;63.708;20.368;2022-12-01T05:13:46;6.10;92.00
14798;DHT22;7490;63.708;20.368;2022-12-01T05:18:39;6.10;91.90
14798;DHT22;7490;63.708;20.368;2022-12-01T05:21:06;6.10;91.90
14798;DHT22;7490;63.708;20.368;2022-12-01T05:23:34;6.00;91.90
14798;DHT22;7490;63.708;20.368;2022-12-01T05:26:01;6.00;91.90
14798;DHT22;7490;63.708;20.368;2022-12-01T05:28:27;5.90;92.20
14798;DHT22;7490;63.708;20.368;2022-12-01T05:30:53;6.00;91.90
14798;DHT22;7490;63.708;20.368;2022-12-01T05:33:20;5.90;92.20
14798;DHT22;7490;63.708;20.368;2022-12-01T05:35:47;5.90;92.00
14798;DHT22;7490;63.708;20.368;2022-12-01T05:38:13;5.90;91.90
14798;DHT22;7490;63.708;20.368;2022-12-01T05:40:39;5.80;91.90
14798;DHT22;7490;63.708;20.368;2022-12-01T05:43:05;5.80;91.90
14798;DHT22;7490;63.708;20.368;2022-12-01T05:45:32;5.80;92.00
14798;DHT22;7490;63.708;20.368;2022-12-01T05:47:59;5.80;92.00
14798;DHT22;7490;63.708;20.368;2022-12-01T05:50:26;5.80;92.20
14798;DHT22;7490;63.708;20.368;2022-12-01T05:52:52;5.80;92.00
14798;DHT22;7490;63.708;20.368;2022-12-01T05:55:18;5.80;92.00
14798;DHT22;7490;63.708;20.368;2022-12-01T05:57:44;5.80;92.00
14798;DHT22;7490;63.708;20.368;2022-12-01T06:00:11;5.80;92.00
14798;DHT22;7490;63.708;20.368;2022-12-01T06:02:38;5.80;92.00
14798;DHT22;7490;63.708;20.368;2022-12-01T06:05:05;5.80;92.00
14798;DHT22;7490;63.708;20.368;2022-12-01T06:07:31;5.80;92.00
14798;DHT22;7490;63.708;20.368;2022-12-01T06:09:58;5.90;92.10
14798;DHT22;7490;63.708;20.368;2022-12-01T06:12:24;5.90;92.10
14798;DHT22;7490;63.708;20.368;2022-12-01T06:14:50;5.90;92.10
14798;DHT22;7490;63.708;20.368;2022-12-01T06:17:16;5.90;92.10
14798;DHT22;7490;63.708;20.368;2022-12-01T06:19:41;5.90;92.00
14798;DHT22;7490;63.708;20.368;2022-12-01T06:22:08;5.90;92.00
14798;DHT22;7490;63.708;20.368;2022-12-01T06:24:34;5.90;92.00
14798;DHT22;7490;63.708;20.368;2022-12-01T06:26:59;5.90;92.00
14798;DHT22;7490;63.708;20.368;2022-12-01T06:29:25;5.90;92.00
14798;DHT22;7490;63.708;20.368;2022-12-01T06:31:50;6.00;92.10
14798;DHT22;7490;63.708;20.368;2022-12-01T06:34:16;6.00;92.10
14798;DHT22;7490;63.708;20.368;2022-12-01T06:36:42;6.00;92.10
14798;DHT22;7490;63.708;20.368;2022-12-01T06:39:08;6.00;92.10
14798;DHT22;7490;63.708;20.368;2022-12-01T06:41:38;6.00;92.10
14798;DHT22;7490;63.708;20.368;2022-12-01T06:44:04;6.00;92.10
14798;DHT22;7490;63.708;20.368;2022-12-01T06:46:30;6.00;92.00
14798;DHT22;7490;63.708;20.368;2022-12-01T06:48:55;6.00;92.00
14798;DHT22;7490;63.708;20.368;2022-12-01T06:51:21;6.00;92.00
14798;DHT22;7490;63.708;20.368;2022-12-01T06:53:47;6.00;92.00
14798;DHT22;7490;63.708;20.368;2022-12-01T06:56:12;6.00;92.00
14798;DHT22;7490;63.708;20.368;2022-12-01T06:58:38;6.00;91.90
14798;DHT22;7490;63.708;20.368;2022-12-01T07:01:09;6.00;91.90
14798;DHT22;7490;63.708;20.368;2022-12-01T07:03:35;5.90;91.90
14798;DHT22;7490;63.708;20.368;2022-12-01T07:06:01;5.90;91.90
14798;DHT22;7490;63.708;20.368;2022-12-01T07:08:28;5.90;91.90
14798;DHT22;7490;63.708;20.368;2022-12-01T07:11:16;5.80;91.90
14798;DHT22;7490;63.708;20.368;2022-12-01T07:13:42;5.80;91.90
14798;DHT22;7490;63.708;20.368;2022-12-01T07:16:11;5.80;91.90
14798;DHT22;7490;63.708;20.368;2022-12-01T07:18:37;5.80;91.90
14798;DHT22;7490;63.708;20.368;2022-12-01T07:21:09;5.70;91.90
14798;DHT22;7490;63.708;20.368;2022-12-01T07:23:35;5.70;92.00
14798;DHT22;7490;63.708;20.368;2022-12-01T07:26:03;5.80;92.00
14798;DHT22;7490;63.708;20.368;2022-12-01T07:28:30;5.70;92.00
14798;DHT22;7490;63.708;20.368;2022-12-01T07:31:09;5.70;92.00
14798;DHT22;7490;63.708;20.368;2022-12-01T07:33:35;5.70;92.00
14798;DHT22;7490;63.708;20.368;2022-12-01T07:36:02;5.70;92.00
14798;DHT22;7490;63.708;20.368;2022-12-01T07:38:29;5.60;92.00
14798;DHT22;7490;63.708;20.368;2022-12-01T07:40:54;5.60;92.00
14798;DHT22;7490;63.708;20.368;2022-12-01T07:43:25;5.60;92.00
14798;DHT22;7490;63.708;20.368;2022-12-01T07:45:50;5.60;92.00
14798;DHT22;7490;63.708;20.368;2022-12-01T07:48:16;5.50;92.00
14798;DHT22;7490;63.708;20.368;2022-12-01T07:50:42;5.50;92.00
14798;DHT22;7490;63.708;20.368;2022-12-01T07:53:08;5.50;92.00
14798;DHT22;7490;63.708;20.368;2022-12-01T07:55:33;5.50;92.00
14798;DHT22;7490;63.708;20.368;2022-12-01T07:57:59;5.50;92.00
14798;DHT22;7490;63.708;20.368;2022-12-01T08:00:25;5.50;92.00
14798;DHT22;7490;63.708;20.368;2022-12-01T08:02:51;5.50;92.00
14798;DHT22;7490;63.708;20.368;2022-12-01T08:05:17;5.50;92.00
14798;DHT22;7490;63.708;20.368;2022-12-01T08:07:42;5.40;92.00
14798;DHT22;7490;63.708;20.368;2022-12-01T08:10:08;5.50;92.00
14798;DHT22;7490;63.708;20.368;2022-12-01T08:12:34;5.40;92.00
14798;DHT22;7490;63.708;20.368;2022-12-01T08:14:59;5.40;92.00
14798;DHT22;7490;63.708;20.368;2022-12-01T08:17:25;5.40;91.90
14798;DHT22;7490;63.708;20.368;2022-12-01T08:19:51;5.30;92.00
14798;DHT22;7490;63.708;20.368;2022-12-01T08:22:16;5.30;91.90
14798;DHT22;7490;63.708;20.368;2022-12-01T08:24:42;5.20;91.90
14798;DHT22;7490;63.708;20.368;2022-12-01T08:27:08;5.20;91.90
14798;DHT22;7490;63.708;20.368;2022-12-01T08:29:34;5.10;91.90
14798;DHT22;7490;63.708;20.368;2022-12-01T08:32:00;5.10;91.80
14798;DHT22;7490;63.708;20.368;2022-12-01T08:34:25;5.00;91.80
14798;DHT22;7490;63.708;20.368;2022-12-01T08:36:51;5.00;91.70
14798;DHT22;7490;63.708;20.368;2022-12-01T08:39:17;4.90;91.70
14798;DHT22;7490;63.708;20.368;2022-12-01T08:41:42;4.90;91.80
14798;DHT22;7490;63.708;20.368;2022-12-01T08:44:09;4.80;91.80
14798;DHT22;7490;63.708;20.368;2022-12-01T08:46:35;4.80;91.80
14798;DHT22;7490;63.708;20.368;2022-12-01T08:49:03;4.70;91.80
14798;DHT22;7490;63.708;20.368;2022-12-01T08:51:29;4.70;91.80
14798;DHT22;7490;63.708;20.368;2022-12-01T08:53:56;4.60;91.80
14798;DHT22;7490;63.708;20.368;2022-12-01T08:56:34;4.60;92.30
14798;DHT22;7490;63.708;20.368;2022-12-01T08:59:00;4.60;91.90
14798;DHT22;7490;63.708;20.368;2022-12-01T09:01:27;4.60;91.90
14798;DHT22;7490;63.708;20.368;2022-12-01T09:03:53;4.50;92.00
14798;DHT22;7490;63.708;20.368;2022-12-01T09:06:39;4.50;92.40
14798;DHT22;7490;63.708;20.368;2022-12-01T09:09:08;4.50;92.00
14798;DHT22;7490;63.708;20.368;2022-12-01T09:11:34;4.50;92.10
14798;DHT22;7490;63.708;20.368;2022-12-01T09:14:00;4.50;92.10
14798;DHT22;7490;63.708;20.368;2022-12-01T09:16:26;4.40;92.10
14798;DHT22;7490;63.708;20.368;2022-12-01T09:18:51;4.40;92.10
14798;DHT22;7490;63.708;20.368;2022-12-01T09:21:20;4.40;92.10
14798;DHT22;7490;63.708;20.368;2022-12-01T09:23:46;4.40;92.10
14798;DHT22;7490;63.708;20.368;2022-12-01T09:26:13;4.40;92.10
14798;DHT22;7490;63.708;20.368;2022-12-01T09:28:43;4.40;92.10
14798;DHT22;7490;63.708;20.368;2022-12-01T09:31:10;4.50;92.20
14798;DHT22;7490;63.708;20.368;2022-12-01T09:33:36;4.50;92.20
14798;DHT22;7490;63.708;20.368;2022-12-01T09:36:04;4.50;92.20
14798;DHT22;7490;63.708;20.368;2022-12-01T09:38:32;4.50;92.20
14798;DHT22;7490;63.708;20.368;2022-12-01T09:41:07;4.50;92.20
14798;DHT22;7490;63.708;20.368;2022-12-01T09:43:39;4.50;92.20
14798;DHT22;7490;63.708;20.368;2022-12-01T09:46:10;4.50;92.20
14798;DHT22;7490;63.708;20.368;2022-12-01T09:48:43;4.60;92.30
14798;DHT22;7490;63.708;20.368;2022-12-01T09:51:16;4.60;92.30
14798;DHT22;7490;63.708;20.368;2022-12-01T09:53:43;4.70;92.30
14798;DHT22;7490;63.708;20.368;2022-12-01T09:56:26;4.70;92.40
14798;DHT22;7490;63.708;20.368;2022-12-01T09:58:56;4.80;92.40
14798;DHT22;7490;63.708;20.368;2022-12-01T10:01:37;4.80;92.30
14798;DHT22;7490;63.708;20.368;2022-12-01T10:10:30;4.80;92.10
14798;DHT22;7490;63.708;20.368;2022-12-01T10:12:57;4.80;92.10
14798;DHT22;7490;63.708;20.368;2022-12-01T10:24:06;4.90;92.40
14798;DHT22;7490;63.708;20.368;2022-12-01T10:29:15;5.00;92.30
14798;DHT22;7490;63.708;20.368;2022-12-01T10:31:55;5.00;92.30
14798;DHT22;7490;63.708;20.368;2022-12-01T10:34:26;5.00;92.30
14798;DHT22;7490;63.708;20.368;2022-12-01T10:36:53;5.00;92.20
14798;DHT22;7490;63.708;20.368;2022-12-01T10:39:33;5.00;92.30
14798;DHT22;7490;63.708;20.368;2022-12-01T10:42:15;5.00;92.20
14798;DHT22;7490;63.708;20.368;2022-12-01T10:44:42;5.10;92.20
14798;DHT22;7490;63.708;20.368;2022-12-01T10:47:20;5.10;92.30
14798;DHT22;7490;63.708;20.368;2022-12-01T10:49:46;5.10;92.20
14798;DHT22;7490;63.708;20.368;2022-12-01T10:54:50;5.00;92.20
14798;DHT22;7490;63.708;20.368;2022-12-01T10:57:16;5.00;92.20
14798;DHT22;7490;63.708;20.368;2022-12-01T10:59:53;5.00;92.20
14798;DHT22;7490;63.708;20.368;2022-12-01T11:02:21;5.00;92.20
14798;DHT22;7490;63.708;20.368;2022-12-01T11:07:33;4.90;92.10
14798;DHT22;7490;63.708;20.368;2022-12-01T11:10:17;4.90;92.00
14798;DHT22;7490;63.708;20.368;2022-12-01T11:12:51;4.80;91.80
14798;DHT22;7490;63.708;20.368;2022-12-01T11:15:23;4.70;91.70
14798;DHT22;7490;63.708;20.368;2022-12-01T11:18:03;4.70;92.00
14798;DHT22;7490;63.708;20.368;2022-12-01T11:20:30;4.60;91.70
14798;DHT22;7490;63.708;20.368;2022-12-01T11:25:34;4.40;91.80
14798;DHT22;7490;63.708;20.368;2022-12-01T11:28:02;4.30;91.90
14798;DHT22;7490;63.708;20.368;2022-12-01T11:30:31;4.30;92.10
14798;DHT22;7490;63.708;20.368;2022-12-01T11:33:02;4.30;92.30
14798;DHT22;7490;63.708;20.368;2022-12-01T11:35:34;4.30;92.30
14798;DHT22;7490;63.708;20.368;2022-12-01T11:38:02;4.30;92.30
14798;DHT22;7490;63.708;20.368;2022-12-01T11:40:30;4.30;92.30
14798;DHT22;7490;63.708;20.368;2022-12-01T11:43:02;4.30;92.30
14798;DHT22;7490;63.708;20.368;2022-12-01T11:45:34;4.30;92.40
14798;DHT22;7490;63.708;20.368;2022-12-01T11:50:41;4.40;92.40
14798;DHT22;7490;63.708;20.368;2022-12-01T11:53:27;4.50;92.50
14798;DHT22;7490;63.708;20.368;2022-12-01T11:58:45;4.60;92.60
14798;DHT22;7490;63.708;20.368;2022-12-01T12:04:39;4.80;92.60
14798;DHT22;7490;63.708;20.368;2022-12-01T12:18:14;4.50;92.00
14798;DHT22;7490;63.708;20.368;2022-12-01T12:31:14;4.10;91.90
14798;DHT22;7490;63.708;20.368;2022-12-01T12:33:53;4.10;92.00
14798;DHT22;7490;63.708;20.368;2022-12-01T12:41:54;3.90;92.10
14798;DHT22;7490;63.708;20.368;2022-12-01T12:52:39;3.60;92.10
14798;DHT22;7490;63.708;20.368;2022-12-01T12:58:33;3.50;92.10
14798;DHT22;7490;63.708;20.368;2022-12-01T13:00:33;3.50;92.30
14798;DHT22;7490;63.708;20.368;2022-12-01T13:03:16;3.40;92.40
14798;DHT22;7490;63.708;20.368;2022-12-01T13:05:49;3.40;92.50
14798;DHT22;7490;63.708;20.368;2022-12-01T13:08:21;3.30;92.40
14798;DHT22;7490;63.708;20.368;2022-12-01T13:16:34;3.30;92.40
14798;DHT22;7490;63.708;20.368;2022-12-01T13:21:40;3.20;92.40
14798;DHT22;7490;63.708;20.368;2022-12-01T13:24:09;3.20;92.50
14798;DHT22;7490;63.708;20.368;2022-12-01T13:26:36;3.20;92.50
14798;DHT22;7490;63.708;20.368;2022-12-01T13:29:05;3.20;92.60
14798;DHT22;7490;63.708;20.368;2022-12-01T13:31:42;3.20;92.70
14798;DHT22;7490;63.708;20.368;2022-12-01T13:34:19;3.20;92.60
14798;DHT22;7490;63.708;20.368;2022-12-01T13:36:49;3.20;92.60
14798;DHT22;7490;63.708;20.368;2022-12-01T13:39:30;3.20;92.50
14798;DHT22;7490;63.708;20.368;2022-12-01T13:44:49;3.20;92.60
14798;DHT22;7490;63.708;20.368;2022-12-01T13:49:44;3.20;92.60
14798;DHT22;7490;63.708;20.368;2022-12-01T14:11:23;3.30;92.50
14798;DHT22;7490;63.708;20.368;2022-12-01T14:14:09;3.30;92.50
14798;DHT22;7490;63.708;20.368;2022-12-01T14:21:56;3.30;92.50
14798;DHT22;7490;63.708;20.368;2022-12-01T14:24:32;3.30;92.50
14798;DHT22;7490;63.708;20.368;2022-12-01T14:26:59;3.30;92.50
14798;DHT22;7490;63.708;20.368;2022-12-01T14:29:35;3.30;92.50
14798;DHT22;7490;63.708;20.368;2022-12-01T14:34:34;3.20;92.50
14798;DHT22;7490;63.708;20.368;2022-12-01T14:39:43;3.20;92.60
14798;DHT22;7490;63.708;20.368;2022-12-01T14:42:31;3.20;92.70
14798;DHT22;7490;63.708;20.368;2022-12-01T14:45:22;3.20;92.70
14798;DHT22;7490;63.708;20.368;2022-12-01T14:48:00;3.20;92.80
14798;DHT22;7490;63.708;20.368;2022-12-01T14:50:44;3.20;92.70
14798;DHT22;7490;63.708;20.368;2022-12-01T14:55:59;3.30;92.80
14798;DHT22;7490;63.708;20.368;2022-12-01T14:58:30;3.30;92.80
14798;DHT22;7490;63.708;20.368;2022-12-01T15:01:06;3.30;92.80
14798;DHT22;7490;63.708;20.368;2022-12-01T15:03:41;3.40;92.80
14798;DHT22;7490;63.708;20.368;2022-12-01T15:06:08;3.40;92.90
14798;DHT22;7490;63.708;20.368;2022-12-01T15:08:36;3.50;92.90
14798;DHT22;7490;63.708;20.368;2022-12-01T15:11:05;3.50;92.90
14798;DHT22;7490;63.708;20.368;2022-12-01T15:13:39;3.60;92.90
14798;DHT22;7490;63.708;20.368;2022-12-01T15:16:13;3.60;92.90
14798;DHT22;7490;63.708;20.368;2022-12-01T15:18:40;3.70;92.80
14798;DHT22;7490;63.708;20.368;2022-12-01T15:21:11;3.70;92.80
14798;DHT22;7490;63.708;20.368;2022-12-01T15:24:01;3.80;92.80
14798;DHT22;7490;63.708;20.368;2022-12-01T15:26:33;3.90;92.80
14798;DHT22;7490;63.708;20.368;2022-12-01T15:31:48;4.00;92.80
14798;DHT22;7490;63.708;20.368;2022-12-01T15:34:18;4.00;92.80
14798;DHT22;7490;63.708;20.368;2022-12-01T15:36:45;4.00;92.70
14798;DHT22;7490;63.708;20.368;2022-12-01T15:39:17;4.00;92.70
14798;DHT22;7490;63.708;20.368;2022-12-01T15:41:47;4.00;92.60
14798;DHT22;7490;63.708;20.368;2022-12-01T15:44:40;4.00;92.60
14798;DHT22;7490;63.708;20.368;2022-12-01T15:47:34;4.00;92.60
14798;DHT22;7490;63.708;20.368;2022-12-01T15:50:04;3.90;92.60
14798;DHT22;7490;63.708;20.368;2022-12-01T15:52:31;3.90;92.60
14798;DHT22;7490;63.708;20.368;2022-12-01T15:55:02;3.90;92.60
14798;DHT22;7490;63.708;20.368;2022-12-01T15:57:28;3.90;92.60
14798;DHT22;7490;63.708;20.368;2022-12-01T15:59:55;3.90;92.60
14798;DHT22;7490;63.708;20.368;2022-12-01T16:02:26;3.80;92.60
14798;DHT22;7490;63.708;20.368;2022-12-01T16:07:33;3.80;92.60
14798;DHT22;7490;63.708;20.368;2022-12-01T16:10:00;3.80;92.90
14798;DHT22;7490;63.708;20.368;2022-12-01T16:12:31;3.80;92.70
14798;DHT22;7490;63.708;20.368;2022-12-01T16:17:41;3.80;92.70
14798;DHT22;7490;63.708;20.368;2022-12-01T16:20:23;3.80;92.60
14798;DHT22;7490;63.708;20.368;2022-12-01T16:22:56;3.80;92.70
14798;DHT22;7490;63.708;20.368;2022-12-01T16:25:44;3.80;92.70
14798;DHT22;7490;63.708;20.368;2022-12-01T16:28:21;3.80;92.60
14798;DHT22;7490;63.708;20.368;2022-12-01T16:30:48;3.80;92.60
14798;DHT22;7490;63.708;20.368;2022-12-01T16:33:20;3.80;92.60
14798;DHT22;7490;63.708;20.368;2022-12-01T16:35:47;3.70;92.60
14798;DHT22;7490;63.708;20.368;2022-12-01T16:38:15;3.70;92.60
14798;DHT22;7490;63.708;20.368;2022-12-01T16:40:45;3.70;92.50
14798;DHT22;7490;63.708;20.368;2022-12-01T16:43:16;3.70;92.50
14798;DHT22;7490;63.708;20.368;2022-12-01T16:45:43;3.60;92.40
14798;DHT22;7490;63.708;20.368;2022-12-01T16:48:09;3.60;92.30
14798;DHT22;7490;63.708;20.368;2022-12-01T16:50:35;3.50;92.20
14798;DHT22;7490;63.708;20.368;2022-12-01T16:53:01;3.50;92.10
14798;DHT22;7490;63.708;20.368;2022-12-01T16:55:55;3.40;92.10
14798;DHT22;7490;63.708;20.368;2022-12-01T16:58:22;3.30;92.00
14798;DHT22;7490;63.708;20.368;2022-12-01T17:00:48;3.20;92.10
14798;DHT22;7490;63.708;20.368;2022-12-01T17:03:19;3.20;92.00
14798;DHT22;7490;63.708;20.368;2022-12-01T17:05:45;3.10;91.90
14798;DHT22;7490;63.708;20.368;2022-12-01T17:08:12;3.00;91.90
14798;DHT22;7490;63.708;20.368;2022-12-01T17:10:39;3.00;91.90
14798;DHT22;7490;63.708;20.368;2022-12-01T17:13:05;2.90;92.00
14798;DHT22;7490;63.708;20.368;2022-12-01T17:15:31;2.80;91.90
14798;DHT22;7490;63.708;20.368;2022-12-01T17:17:57;2.80;92.00
14798;DHT22;7490;63.708;20.368;2022-12-01T17:20:22;2.70;92.00
14798;DHT22;7490;63.708;20.368;2022-12-01T17:22:48;2.60;92.20
14798;DHT22;7490;63.708;20.368;2022-12-01T17:25:14;2.60;92.30
14798;DHT22;7490;63.708;20.368;2022-12-01T17:27:40;2.50;92.30
14798;DHT22;7490;63.708;20.368;2022-12-01T17:30:09;2.50;92.40
14798;DHT22;7490;63.708;20.368;2022-12-01T17:32:35;2.50;92.40
14798;DHT22;7490;63.708;20.368;2022-12-01T17:35:01;2.50;92.50
14798;DHT22;7490;63.708;20.368;2022-12-01T17:37:27;2.50;92.50
14798;DHT22;7490;63.708;20.368;2022-12-01T17:39:52;2.40;92.60
14798;DHT22;7490;63.708;20.368;2022-12-01T17:42:19;2.50;92.60
14798;DHT22;7490;63.708;20.368;2022-12-01T17:44:44;2.50;92.60
14798;DHT22;7490;63.708;20.368;2022-12-01T17:47:11;2.50;92.60
14798;DHT22;7490;63.708;20.368;2022-12-01T17:49:37;2.50;92.70
14798;DHT22;7490;63.708;20.368;2022-12-01T17:52:03;2.60;92.70
14798;DHT22;7490;63.708;20.368;2022-12-01T17:54:30;2.60;92.80
14798;DHT22;7490;63.708;20.368;2022-12-01T17:56:55;2.60;92.80
14798;DHT22;7490;63.708;20.368;2022-12-01T17:59:21;2.60;92.70
14798;DHT22;7490;63.708;20.368;2022-12-01T18:01:47;2.70;92.80
14798;DHT22;7490;63.708;20.368;2022-12-01T18:04:13;2.70;92.80
14798;DHT22;7490;63.708;20.368;2022-12-01T18:06:39;2.70;92.70
14798;DHT22;7490;63.708;20.368;2022-12-01T18:09:05;2.70;92.60
14798;DHT22;7490;63.708;20.368;2022-12-01T18:11:31;2.70;92.70
14798;DHT22;7490;63.708;20.368;2022-12-01T18:13:57;2.70;92.60
14798;DHT22;7490;63.708;20.368;2022-12-01T18:16:28;2.80;92.60
14798;DHT22;7490;63.708;20.368;2022-12-01T18:18:54;2.80;92.60
14798;DHT22;7490;63.708;20.368;2022-12-01T18:21:22;2.80;92.60
14798;DHT22;7490;63.708;20.368;2022-12-01T18:23:56;2.80;92.60
14798;DHT22;7490;63.708;20.368;2022-12-01T18:26:23;2.80;92.50
14798;DHT22;7490;63.708;20.368;2022-12-01T18:29:00;2.80;92.50
14798;DHT22;7490;63.708;20.368;2022-12-01T18:31:28;2.80;92.50
14798;DHT22;7490;63.708;20.368;2022-12-01T18:33:57;2.80;92.60
14798;DHT22;7490;63.708;20.368;2022-12-01T18:36:24;2.80;92.50
14798;DHT22;7490;63.708;20.368;2022-12-01T18:38:51;2.80;92.60
14798;DHT22;7490;63.708;20.368;2022-12-01T18:41:18;2.70;92.60
14798;DHT22;7490;63.708;20.368;2022-12-01T18:43:45;2.70;92.60
14798;DHT22;7490;63.708;20.368;2022-12-01T18:46:12;2.70;92.70
14798;DHT22;7490;63.708;20.368;2022-12-01T18:48:43;2.70;92.70
14798;DHT22;7490;63.708;20.368;2022-12-01T18:51:10;2.70;92.70
14798;DHT22;7490;63.708;20.368;2022-12-01T18:53:36;2.70;92.70